PWSweather.com
Personal Weather Stations
Station Observations
SHAHALMS1
Eftra, Falkenberg, HA

EftraFalkenberg, HA

Lat: 56.85, Lon: 12.65

Elevation: 140

Station Type:

http://hem.passagen.se/risarp101

High Low Average
Temperature 75.2°F24.0°C 47.8°F8.8°C 62.4°F16.9°C
Dew Point 59.5°F15.3°C 42.9°F6.1°C 51.3°F10.7°C
Winds 11.3 mph 18.2 kmh 0.1 mph 0.2 kmh 6.0 mph ESE9.7 kmh ESE
Wind Gusts 29.7 mph47.8 kmh 2.5 mph4.0 kmh 15.0 mph24.1 kmh
Humidity 87% 47% 69%
Pressure 30.18 in1022.0 mb 29.89 in1012.2 mb -
Precipitation 0.04 in1.0 mm - -
Hour Temp Dew Point Humidity Winds Wind Gusts Pressure Precip Precip Rate Daily Precip Total
12:00 AM 50.0°F10.0°C 44.7°F7.1°C 82% 6.6 mph SE10.6 kmh SE 11.1 mph17.9 kmh 30.15 in1021.0 mb 0.00 in0.0 mm 0.00 in0.0 mm 0.00 in0.0 mm
12:15 AM 49.8°F9.9°C 44.9°F7.2°C 83% 6.7 mph ESE10.8 kmh ESE 10.4 mph16.7 kmh 30.18 in1022.0 mb 0.00 in0.0 mm 0.00 in0.0 mm 0.00 in0.0 mm
12:30 AM 49.6°F9.8°C 44.7°F7.1°C 83% 6.2 mph SE10.0 kmh SE 10.0 mph16.1 kmh 30.15 in1021.0 mb 0.00 in0.0 mm 0.00 in0.0 mm 0.00 in0.0 mm
12:45 AM 49.5°F9.7°C 44.5°F6.9°C 83% 6.7 mph ESE10.8 kmh ESE 9.7 mph15.6 kmh 30.15 in1021.0 mb 0.00 in0.0 mm 0.00 in0.0 mm 0.00 in0.0 mm
01:00 AM 49.3°F9.6°C 44.3°F6.8°C 83% 5.8 mph ESE9.3 kmh ESE 9.3 mph15.0 kmh 30.15 in1021.0 mb 0.00 in0.0 mm 0.00 in0.0 mm 0.00 in0.0 mm
01:15 AM 49.3°F9.6°C 44.3°F6.8°C 83% 6.4 mph ESE10.3 kmh ESE 10.4 mph16.7 kmh 30.15 in1021.0 mb 0.00 in0.0 mm 0.00 in0.0 mm 0.00 in0.0 mm
01:30 AM 49.3°F9.6°C 44.3°F6.8°C 83% 6.0 mph ESE9.7 kmh ESE 10.0 mph16.1 kmh 30.15 in1021.0 mb 0.00 in0.0 mm 0.00 in0.0 mm 0.00 in0.0 mm
01:45 AM 49.3°F9.6°C 44.3°F6.8°C 83% 5.6 mph ESE9.0 kmh ESE 8.9 mph14.3 kmh 30.12 in1020.0 mb 0.00 in0.0 mm 0.00 in0.0 mm 0.00 in0.0 mm
02:00 AM 49.1°F9.5°C 44.2°F6.8°C 83% 3.5 mph ESE5.6 kmh ESE 8.6 mph13.8 kmh 30.12 in1020.0 mb 0.00 in0.0 mm 0.00 in0.0 mm 0.00 in0.0 mm
02:15 AM 48.9°F9.4°C 44.0°F6.7°C 83% 4.9 mph E7.9 kmh E 8.9 mph14.3 kmh 30.12 in1020.0 mb 0.00 in0.0 mm 0.00 in0.0 mm 0.00 in0.0 mm
02:30 AM 48.6°F9.2°C 43.3°F6.3°C 82% 2.2 mph E3.5 kmh E 6.1 mph9.8 kmh 30.12 in1020.0 mb 0.00 in0.0 mm 0.00 in0.0 mm 0.00 in0.0 mm
02:45 AM 48.2°F9.0°C 43.0°F6.1°C 82% 0.2 mph E0.3 kmh E 4.3 mph6.9 kmh 30.15 in1021.0 mb 0.00 in0.0 mm 0.00 in0.0 mm 0.00 in0.0 mm
03:00 AM 47.8°F8.8°C 42.9°F6.1°C 83% 0.3 mph SE0.5 kmh SE 4.7 mph7.6 kmh 30.15 in1021.0 mb 0.00 in0.0 mm 0.00 in0.0 mm 0.00 in0.0 mm
03:15 AM 47.8°F8.8°C 42.9°F6.1°C 83% 4.1 mph ESE6.6 kmh ESE 6.8 mph10.9 kmh 30.18 in1022.0 mb 0.00 in0.0 mm 0.00 in0.0 mm 0.00 in0.0 mm
03:30 AM 48.0°F8.9°C 43.4°F6.3°C 84% 4.7 mph E7.6 kmh E 9.3 mph15.0 kmh 30.15 in1021.0 mb 0.00 in0.0 mm 0.00 in0.0 mm 0.00 in0.0 mm
03:45 AM 48.0°F8.9°C 43.4°F6.3°C 84% 4.6 mph E7.4 kmh E 8.9 mph14.3 kmh 30.15 in1021.0 mb 0.00 in0.0 mm 0.00 in0.0 mm 0.00 in0.0 mm
04:00 AM 48.0°F8.9°C 43.4°F6.3°C 84% 4.0 mph ESE6.4 kmh ESE 7.9 mph12.7 kmh 30.12 in1020.0 mb 0.00 in0.0 mm 0.00 in0.0 mm 0.00 in0.0 mm
04:15 AM 48.2°F9.0°C 43.9°F6.6°C 85% 6.0 mph ESE9.7 kmh ESE 9.3 mph15.0 kmh 30.12 in1020.0 mb 0.00 in0.0 mm 0.00 in0.0 mm 0.00 in0.0 mm
04:30 AM 48.7°F9.3°C 44.7°F7.1°C 86% 6.1 mph ESE9.8 kmh ESE 9.7 mph15.6 kmh 30.12 in1020.0 mb 0.00 in0.0 mm 0.00 in0.0 mm 0.00 in0.0 mm
04:45 AM 49.3°F9.6°C 45.3°F7.4°C 86% 3.2 mph E5.1 kmh E 6.4 mph10.3 kmh 30.12 in1020.0 mb 0.00 in0.0 mm 0.00 in0.0 mm 0.00 in0.0 mm
05:00 AM 49.6°F9.8°C 45.9°F7.7°C 87% 3.4 mph E5.5 kmh E 7.5 mph12.1 kmh 30.12 in1020.0 mb 0.00 in0.0 mm 0.00 in0.0 mm 0.00 in0.0 mm
05:15 AM 50.0°F10.0°C 46.3°F7.9°C 87% 3.7 mph E6.0 kmh E 6.4 mph10.3 kmh 30.12 in1020.0 mb 0.00 in0.0 mm 0.00 in0.0 mm 0.00 in0.0 mm
05:30 AM 50.4°F10.2°C 46.3°F7.9°C 86% 0.1 mph E0.2 kmh E 2.5 mph4.0 kmh 30.12 in1020.0 mb 0.00 in0.0 mm 0.00 in0.0 mm 0.00 in0.0 mm
05:45 AM 50.7°F10.4°C 46.7°F8.2°C 86% 0.7 mph E1.1 kmh E 5.0 mph8.0 kmh 30.09 in1019.0 mb 0.00 in0.0 mm 0.00 in0.0 mm 0.00 in0.0 mm
06:00 AM 51.4°F10.8°C 47.1°F8.4°C 85% 3.4 mph E5.5 kmh E 6.4 mph10.3 kmh 30.09 in1019.0 mb 0.00 in0.0 mm 0.00 in0.0 mm 0.00 in0.0 mm
06:15 AM 52.3°F11.3°C 48.3°F9.1°C 86% 3.0 mph E4.8 kmh E 8.9 mph14.3 kmh 30.12 in1020.0 mb 0.00 in0.0 mm 0.00 in0.0 mm 0.00 in0.0 mm
06:30 AM 52.9°F11.6°C 48.8°F9.3°C 86% 1.9 mph E3.1 kmh E 7.5 mph12.1 kmh 30.09 in1019.0 mb 0.00 in0.0 mm 0.00 in0.0 mm 0.00 in0.0 mm
06:45 AM 53.6°F12.0°C 49.2°F9.6°C 85% 1.1 mph E1.8 kmh E 6.1 mph9.8 kmh 30.09 in1019.0 mb 0.00 in0.0 mm 0.00 in0.0 mm 0.00 in0.0 mm
07:00 AM 54.3°F12.4°C 49.9°F9.9°C 85% 2.4 mph ENE3.9 kmh ENE 8.6 mph13.8 kmh 30.09 in1019.0 mb 0.00 in0.0 mm 0.00 in0.0 mm 0.00 in0.0 mm
07:15 AM 55.6°F13.1°C 51.1°F10.6°C 85% 4.5 mph E7.2 kmh E 9.3 mph15.0 kmh 30.09 in1019.0 mb 0.00 in0.0 mm 0.00 in0.0 mm 0.00 in0.0 mm
07:30 AM 56.1°F13.4°C 51.4°F10.8°C 84% 4.7 mph E7.6 kmh E 12.2 mph19.6 kmh 30.09 in1019.0 mb 0.00 in0.0 mm 0.00 in0.0 mm 0.00 in0.0 mm
07:45 AM 56.8°F13.8°C 51.4°F10.8°C 82% 4.7 mph E7.6 kmh E 13.6 mph21.9 kmh 30.09 in1019.0 mb 0.00 in0.0 mm 0.00 in0.0 mm 0.00 in0.0 mm
08:00 AM 58.3°F14.6°C 52.5°F11.4°C 81% 6.0 mph E9.7 kmh E 15.7 mph25.3 kmh 30.12 in1020.0 mb 0.00 in0.0 mm 0.00 in0.0 mm 0.00 in0.0 mm
08:15 AM 59.4°F15.2°C 53.2°F11.8°C 80% 5.7 mph E9.2 kmh E 14.7 mph23.7 kmh 30.09 in1019.0 mb 0.00 in0.0 mm 0.00 in0.0 mm 0.00 in0.0 mm
08:30 AM 60.4°F15.8°C 53.9°F12.2°C 79% 7.1 mph E11.4 kmh E 14.0 mph22.5 kmh 30.09 in1019.0 mb 0.00 in0.0 mm 0.00 in0.0 mm 0.00 in0.0 mm
08:45 AM 61.5°F16.4°C 54.6°F12.6°C 78% 8.5 mph E13.7 kmh E 19.7 mph31.7 kmh 30.09 in1019.0 mb 0.00 in0.0 mm 0.00 in0.0 mm 0.00 in0.0 mm
09:00 AM 62.4°F16.9°C 54.8°F12.7°C 76% 6.3 mph SE10.1 kmh SE 16.5 mph26.6 kmh 30.07 in1018.3 mb 0.00 in0.0 mm 0.00 in0.0 mm 0.00 in0.0 mm
09:15 AM 63.7°F17.6°C 55.2°F12.9°C 74% 6.6 mph ESE10.6 kmh ESE 19.7 mph31.7 kmh 30.07 in1018.3 mb 0.00 in0.0 mm 0.00 in0.0 mm 0.00 in0.0 mm
09:30 AM 64.9°F18.3°C 55.7°F13.2°C 72% 8.9 mph ESE14.3 kmh ESE 26.8 mph43.1 kmh 30.07 in1018.3 mb 0.00 in0.0 mm 0.00 in0.0 mm 0.00 in0.0 mm
09:45 AM 66.0°F18.9°C 55.6°F13.1°C 69% 10.8 mph SE17.4 kmh SE 23.3 mph37.5 kmh 30.07 in1018.3 mb 0.00 in0.0 mm 0.00 in0.0 mm 0.00 in0.0 mm
10:00 AM 66.6°F19.2°C 55.3°F12.9°C 67% 10.2 mph SE16.4 kmh SE 21.5 mph34.6 kmh 30.07 in1018.3 mb 0.00 in0.0 mm 0.00 in0.0 mm 0.00 in0.0 mm
10:15 AM 67.5°F19.7°C 56.1°F13.4°C 67% 9.5 mph ESE15.3 kmh ESE 17.5 mph28.2 kmh 30.07 in1018.3 mb 0.00 in0.0 mm 0.00 in0.0 mm 0.00 in0.0 mm
10:30 AM 68.5°F20.3°C 55.9°F13.3°C 64% 9.8 mph ESE15.8 kmh ESE 20.8 mph33.5 kmh 30.07 in1018.3 mb 0.00 in0.0 mm 0.00 in0.0 mm 0.00 in0.0 mm
10:45 AM 69.3°F20.7°C 56.6°F13.7°C 64% 9.0 mph ESE14.5 kmh ESE 24.7 mph39.8 kmh 30.07 in1018.3 mb 0.00 in0.0 mm 0.00 in0.0 mm 0.00 in0.0 mm
11:00 AM 70.2°F21.2°C 57.0°F13.9°C 63% 9.2 mph SE14.8 kmh SE 21.1 mph34.0 kmh 30.07 in1018.3 mb 0.00 in0.0 mm 0.00 in0.0 mm 0.00 in0.0 mm
11:15 AM 71.4°F21.9°C 57.7°F14.3°C 62% 8.8 mph ESE14.2 kmh ESE 27.9 mph44.9 kmh 30.04 in1017.3 mb 0.00 in0.0 mm 0.00 in0.0 mm 0.00 in0.0 mm
11:30 AM 72.5°F22.5°C 57.4°F14.1°C 59% 8.3 mph SE13.4 kmh SE 19.7 mph31.7 kmh 30.07 in1018.3 mb 0.00 in0.0 mm 0.00 in0.0 mm 0.00 in0.0 mm
11:45 AM 72.0°F22.2°C 57.3°F14.1°C 60% 5.2 mph SE8.4 kmh SE 11.8 mph19.0 kmh 30.07 in1018.3 mb 0.00 in0.0 mm 0.00 in0.0 mm 0.00 in0.0 mm
12:00 PM 72.5°F22.5°C 58.7°F14.8°C 62% 5.6 mph SE9.0 kmh SE 14.0 mph22.5 kmh 30.07 in1018.3 mb 0.00 in0.0 mm 0.00 in0.0 mm 0.00 in0.0 mm
12:15 PM 72.1°F22.3°C 57.9°F14.4°C 61% 5.9 mph SE9.5 kmh SE 16.1 mph25.9 kmh 30.04 in1017.3 mb 0.00 in0.0 mm 0.00 in0.0 mm 0.00 in0.0 mm
12:30 PM 72.7°F22.6°C 58.5°F14.7°C 61% 5.3 mph SE8.5 kmh SE 12.5 mph20.1 kmh 30.04 in1017.3 mb 0.00 in0.0 mm 0.00 in0.0 mm 0.00 in0.0 mm
12:45 PM 73.8°F23.2°C 59.5°F15.3°C 61% 7.6 mph ESE12.2 kmh ESE 20.4 mph32.8 kmh 30.04 in1017.3 mb 0.00 in0.0 mm 0.00 in0.0 mm 0.00 in0.0 mm
01:00 PM 74.3°F23.5°C 58.6°F14.8°C 58% 7.8 mph SE12.6 kmh SE 15.7 mph25.3 kmh 30.04 in1017.3 mb 0.00 in0.0 mm 0.00 in0.0 mm 0.00 in0.0 mm
01:15 PM 74.1°F23.4°C 57.9°F14.4°C 57% 9.6 mph SE15.4 kmh SE 22.5 mph36.2 kmh 30.04 in1017.3 mb 0.00 in0.0 mm 0.00 in0.0 mm 0.00 in0.0 mm
01:30 PM 73.8°F23.2°C 58.1°F14.5°C 58% 6.5 mph SE10.5 kmh SE 15.7 mph25.3 kmh 30.01 in1016.3 mb 0.00 in0.0 mm 0.00 in0.0 mm 0.00 in0.0 mm
01:45 PM 74.8°F23.8°C 59.1°F15.1°C 58% 7.9 mph SE12.7 kmh SE 22.5 mph36.2 kmh 30.04 in1017.3 mb 0.00 in0.0 mm 0.00 in0.0 mm 0.00 in0.0 mm
02:00 PM 75.2°F24.0°C 58.4°F14.7°C 56% 9.7 mph SE15.6 kmh SE 23.6 mph38.0 kmh 30.04 in1017.3 mb 0.00 in0.0 mm 0.00 in0.0 mm 0.00 in0.0 mm
02:15 PM 74.7°F23.7°C 56.4°F13.6°C 53% 8.8 mph SE14.2 kmh SE 26.8 mph43.1 kmh 30.04 in1017.3 mb 0.00 in0.0 mm 0.00 in0.0 mm 0.00 in0.0 mm
02:30 PM 74.7°F23.7°C 56.4°F13.6°C 53% 9.3 mph SE15.0 kmh SE 24.3 mph39.1 kmh 30.04 in1017.3 mb 0.00 in0.0 mm 0.00 in0.0 mm 0.00 in0.0 mm
02:45 PM 75.0°F23.9°C 55.7°F13.2°C 51% 10.6 mph SE17.1 kmh SE 29.7 mph47.8 kmh 30.01 in1016.3 mb 0.00 in0.0 mm 0.00 in0.0 mm 0.00 in0.0 mm
03:00 PM 75.2°F24.0°C 54.7°F12.6°C 49% 9.0 mph SE14.5 kmh SE 23.3 mph37.5 kmh 30.01 in1016.3 mb 0.00 in0.0 mm 0.00 in0.0 mm 0.00 in0.0 mm
03:15 PM 75.2°F24.0°C 55.3°F12.9°C 50% 7.1 mph SE11.4 kmh SE 16.1 mph25.9 kmh 30.01 in1016.3 mb 0.00 in0.0 mm 0.00 in0.0 mm 0.00 in0.0 mm
03:30 PM 75.2°F24.0°C 54.7°F12.6°C 49% 8.2 mph SE13.2 kmh SE 20.4 mph32.8 kmh 29.98 in1015.2 mb 0.00 in0.0 mm 0.00 in0.0 mm 0.00 in0.0 mm
03:45 PM 75.0°F23.9°C 54.0°F12.2°C 48% 9.3 mph SE15.0 kmh SE 20.4 mph32.8 kmh 29.98 in1015.2 mb 0.00 in0.0 mm 0.00 in0.0 mm 0.00 in0.0 mm
04:00 PM 74.8°F23.8°C 53.8°F12.1°C 48% 8.7 mph SSE14.0 kmh SSE 24.3 mph39.1 kmh 29.98 in1015.2 mb 0.00 in0.0 mm 0.00 in0.0 mm 0.00 in0.0 mm
04:15 PM 75.0°F23.9°C 53.4°F11.9°C 47% 7.1 mph SSE11.4 kmh SSE 16.5 mph26.6 kmh 29.98 in1015.2 mb 0.00 in0.0 mm 0.00 in0.0 mm 0.00 in0.0 mm
04:30 PM 74.3°F23.5°C 52.8°F11.6°C 47% 10.0 mph SE16.1 kmh SE 25.8 mph41.5 kmh 29.95 in1014.2 mb 0.00 in0.0 mm 0.00 in0.0 mm 0.00 in0.0 mm
04:45 PM 73.9°F23.3°C 52.4°F11.3°C 47% 6.2 mph SSE10.0 kmh SSE 17.5 mph28.2 kmh 29.95 in1014.2 mb 0.00 in0.0 mm 0.00 in0.0 mm 0.00 in0.0 mm
05:00 PM 73.6°F23.1°C 52.7°F11.5°C 48% 6.5 mph SE10.5 kmh SE 16.5 mph26.6 kmh 29.98 in1015.2 mb 0.00 in0.0 mm 0.00 in0.0 mm 0.00 in0.0 mm
05:15 PM 72.3°F22.4°C 51.5°F10.8°C 48% 4.7 mph SSE7.6 kmh SSE 15.0 mph24.1 kmh 29.98 in1015.2 mb 0.00 in0.0 mm 0.00 in0.0 mm 0.00 in0.0 mm
05:30 PM 71.4°F21.9°C 50.7°F10.4°C 48% 5.4 mph SE8.7 kmh SE 17.5 mph28.2 kmh 29.98 in1015.2 mb 0.00 in0.0 mm 0.00 in0.0 mm 0.00 in0.0 mm
05:45 PM 71.1°F21.7°C 50.9°F10.5°C 49% 3.6 mph SE5.8 kmh SE 8.6 mph13.8 kmh 29.98 in1015.2 mb 0.00 in0.0 mm 0.00 in0.0 mm 0.00 in0.0 mm
06:00 PM 70.3°F21.3°C 51.3°F10.7°C 51% 6.6 mph SE10.6 kmh SE 20.4 mph32.8 kmh 29.98 in1015.2 mb 0.00 in0.0 mm 0.00 in0.0 mm 0.00 in0.0 mm
06:15 PM 69.6°F20.9°C 52.7°F11.5°C 55% 6.8 mph SE10.9 kmh SE 16.5 mph26.6 kmh 29.98 in1015.2 mb 0.00 in0.0 mm 0.00 in0.0 mm 0.00 in0.0 mm
06:30 PM 69.3°F20.7°C 52.4°F11.3°C 55% 6.3 mph ESE10.1 kmh ESE 20.8 mph33.5 kmh 29.98 in1015.2 mb 0.00 in0.0 mm 0.00 in0.0 mm 0.00 in0.0 mm
06:45 PM 68.9°F20.5°C 52.1°F11.2°C 55% 5.7 mph SE9.2 kmh SE 16.8 mph27.0 kmh 29.95 in1014.2 mb 0.00 in0.0 mm 0.00 in0.0 mm 0.00 in0.0 mm
07:00 PM 68.2°F20.1°C 51.4°F10.8°C 55% 5.9 mph SE9.5 kmh SE 12.5 mph20.1 kmh 29.95 in1014.2 mb 0.00 in0.0 mm 0.00 in0.0 mm 0.00 in0.0 mm
07:15 PM 67.3°F19.6°C 51.0°F10.6°C 56% 6.9 mph SE11.1 kmh SE 16.5 mph26.6 kmh 29.95 in1014.2 mb 0.00 in0.0 mm 0.00 in0.0 mm 0.00 in0.0 mm
07:30 PM 66.4°F19.1°C 50.7°F10.4°C 57% 7.6 mph ESE12.2 kmh ESE 19.0 mph30.6 kmh 29.95 in1014.2 mb 0.00 in0.0 mm 0.00 in0.0 mm 0.00 in0.0 mm
07:45 PM 66.0°F18.9°C 51.3°F10.7°C 59% 6.3 mph SE10.1 kmh SE 20.8 mph33.5 kmh 29.95 in1014.2 mb 0.00 in0.0 mm 0.00 in0.0 mm 0.00 in0.0 mm
08:00 PM 65.5°F18.6°C 50.8°F10.4°C 59% 7.1 mph SE11.4 kmh SE 20.4 mph32.8 kmh 29.95 in1014.2 mb 0.00 in0.0 mm 0.00 in0.0 mm 0.00 in0.0 mm
08:15 PM 64.9°F18.3°C 50.7°F10.4°C 60% 8.0 mph ESE12.9 kmh ESE 13.6 mph21.9 kmh 29.95 in1014.2 mb 0.00 in0.0 mm 0.00 in0.0 mm 0.00 in0.0 mm
08:30 PM 64.8°F18.2°C 51.0°F10.6°C 61% 8.7 mph SE14.0 kmh SE 19.0 mph30.6 kmh 29.92 in1013.2 mb 0.00 in0.0 mm 0.00 in0.0 mm 0.00 in0.0 mm
08:45 PM 64.4°F18.0°C 51.1°F10.6°C 62% 11.3 mph SE18.2 kmh SE 22.5 mph36.2 kmh 29.92 in1013.2 mb 0.00 in0.0 mm 0.00 in0.0 mm 0.00 in0.0 mm
09:00 PM 64.2°F17.9°C 50.9°F10.5°C 62% 7.7 mph ESE12.4 kmh ESE 23.6 mph38.0 kmh 29.92 in1013.2 mb 0.00 in0.0 mm 0.00 in0.0 mm 0.00 in0.0 mm
09:15 PM 64.2°F17.9°C 50.9°F10.5°C 62% 9.1 mph E14.6 kmh E 22.2 mph35.7 kmh 29.92 in1013.2 mb 0.00 in0.0 mm 0.00 in0.0 mm 0.00 in0.0 mm
09:30 PM 63.7°F17.6°C 50.8°F10.4°C 63% 4.8 mph SE7.7 kmh SE 12.5 mph20.1 kmh 29.92 in1013.2 mb 0.00 in0.0 mm 0.00 in0.0 mm 0.00 in0.0 mm
09:45 PM 62.6°F17.0°C 51.5°F10.8°C 67% 1.7 mph E2.7 kmh E 8.9 mph14.3 kmh 29.92 in1013.2 mb 0.00 in0.0 mm 0.00 in0.0 mm 0.00 in0.0 mm
10:00 PM 61.7°F16.5°C 52.6°F11.4°C 72% 6.6 mph E10.6 kmh E 16.1 mph25.9 kmh 29.92 in1013.2 mb 0.04 in1.0 mm 0.05 in1.3 mm 0.04 in1.0 mm
10:15 PM 61.3°F16.3°C 52.6°F11.4°C 73% 7.7 mph ESE12.4 kmh ESE 16.5 mph26.6 kmh 29.92 in1013.2 mb 0.04 in1.0 mm 0.00 in0.0 mm 0.04 in1.0 mm
10:30 PM 61.3°F16.3°C 53.0°F11.7°C 74% 9.8 mph SE15.8 kmh SE 20.8 mph33.5 kmh 29.92 in1013.2 mb 0.04 in1.0 mm 0.00 in0.0 mm 0.04 in1.0 mm
10:45 PM 61.3°F16.3°C 53.0°F11.7°C 74% 7.8 mph E12.6 kmh E 21.1 mph34.0 kmh 29.92 in1013.2 mb 0.04 in1.0 mm 0.00 in0.0 mm 0.04 in1.0 mm
11:00 PM 61.5°F16.4°C 52.8°F11.6°C 73% 7.6 mph ESE12.2 kmh ESE 22.5 mph36.2 kmh 29.89 in1012.2 mb 0.00 in0.0 mm 0.00 in0.0 mm 0.04 in1.0 mm
11:15 PM 61.9°F16.6°C 53.1°F11.7°C 73% 6.0 mph SE9.7 kmh SE 19.0 mph30.6 kmh 29.89 in1012.2 mb 0.00 in0.0 mm 0.00 in0.0 mm 0.04 in1.0 mm
11:45 PM 60.8°F16.0°C 53.9°F12.2°C 78% 7.1 mph SE11.4 kmh SE 19.7 mph31.7 kmh 29.89 in1012.2 mb 0.04 in1.0 mm 0.08 in2.0 mm 0.04 in1.0 mm